Time;durP1;ratioP1;P1;durP2;ratioP2;P2;SDS_P1;SDS_P2;PMS_P1;PMS_P2;Temp;Humidity;BMP_temperature;BMP_pressure;BME280_temperature;BME280_humidity;BME280_pressure;Samples;Min_cycle;Max_cycle;Signal;HPM_P1;HPM_P2
2022/06/02 00:00:50;;;;;;;12.48;10.25;;;8.80;99.90;;;;;;5036088;28;20041;-63
2022/06/02 00:03:37;;;;;;;10.68;9.50;;;8.80;99.90;;;;;;5035913;28;20048;-64
2022/06/02 00:06:23;;;;;;;11.13;9.27;;;8.70;99.90;;;;;;5014234;28;20088;-63
2022/06/02 00:08:54;;;;;;;10.80;9.60;;;8.80;99.90;;;;;;5029014;28;20061;-63
2022/06/02 00:12:05;;;;;;;11.98;9.30;;;8.60;99.90;;;;;;5013990;28;20034;-63
2022/06/02 00:14:39;;;;;;;12.63;9.73;;;8.80;99.90;;;;;;5050809;28;20083;-62
2022/06/02 00:17:32;;;;;;;8.50;6.90;;;8.80;99.90;;;;;;5053125;28;20073;-62
2022/06/02 00:20:25;;;;;;;9.30;8.27;;;8.90;99.90;;;;;;5022416;28;20067;-63
2022/06/02 00:23:19;;;;;;;10.50;7.70;;;8.60;99.90;;;;;;5036168;28;20044;-63
2022/06/02 00:25:51;;;;;;;6.93;5.88;;;8.50;99.90;;;;;;5019514;28;20053;-63
2022/06/02 00:28:45;;;;;;;7.68;6.70;;;8.40;99.90;;;;;;5053824;28;20062;-63
2022/06/02 00:31:43;;;;;;;7.15;6.15;;;8.50;99.90;;;;;;5035531;28;20041;-64
2022/06/02 00:34:56;;;;;;;5.97;5.32;;;8.30;99.90;;;;;;5049517;28;20395;-63
2022/06/02 00:37:55;;;;;;;9.52;5.72;;;8.20;99.90;;;;;;4961466;28;20048;-63
2022/06/02 00:40:23;;;;;;;7.10;6.40;;;8.30;99.90;;;;;;5015498;28;20033;-63
2022/06/02 00:43:13;;;;;;;6.28;5.68;;;8.30;99.90;;;;;;5045768;28;20037;-62
2022/06/02 00:45:42;;;;;;;6.65;5.97;;;8.20;99.90;;;;;;5023459;28;20110;-62
2022/06/02 00:48:22;;;;;;;6.43;5.78;;;8.40;99.90;;;;;;5034791;28;20044;-63
2022/06/02 00:51:03;;;;;;;8.88;7.13;;;8.50;99.90;;;;;;4999920;28;20392;-63
2022/06/02 01:00:03;;;;;;;8.65;7.70;;;8.30;99.90;;;;;;5040969;28;20045;-63
2022/06/02 01:02:48;;;;;;;11.63;9.15;;;8.20;99.90;;;;;;5022108;28;20138;-63
2022/06/02 01:05:18;;;;;;;9.75;8.18;;;8.10;99.90;;;;;;5041333;28;20038;-62
2022/06/02 01:08:03;;;;;;;6.10;5.50;;;8.10;99.90;;;;;;5050146;28;20098;-63
2022/06/02 01:10:46;;;;;;;6.75;6.05;;;8.10;99.90;;;;;;5048852;28;20040;-63
2022/06/02 01:13:34;;;;;;;7.15;6.35;;;8.30;99.90;;;;;;5025104;28;20082;-62
2022/06/02 01:16:13;;;;;;;7.47;6.55;;;8.10;99.90;;;;;;5022342;28;20116;-62
2022/06/02 01:19:17;;;;;;;7.78;6.47;;;7.90;99.90;;;;;;5038641;28;20045;-63
2022/06/02 01:22:09;;;;;;;8.70;7.55;;;;;;;;;;5024763;28;20052;-63
2022/06/02 01:25:09;;;;;;;11.73;9.93;;;8.10;99.90;;;;;;4991280;28;20215;-63
2022/06/02 01:27:38;;;;;;;12.32;9.60;;;;;;;;;;5037822;28;20087;-63
2022/06/02 01:30:04;;;;;;;11.60;10.07;;;;;;;;;;5021252;28;20455;-63
2022/06/02 01:32:59;;;;;;;13.93;11.15;;;7.90;99.90;;;;;;5056089;28;20104;-63
2022/06/02 01:36:01;;;;;;;14.07;11.55;;;8.00;99.90;;;;;;5024985;28;20044;-63
2022/06/02 01:38:35;;;;;;;18.73;12.93;;;7.90;99.90;;;;;;5037767;28;20033;-63
2022/06/02 01:41:01;;;;;;;14.70;11.85;;;7.90;99.90;;;;;;5038150;28;20032;-63
2022/06/02 01:43:54;;;;;;;13.07;11.50;;;7.90;99.90;;;;;;5037848;28;20060;-63
2022/06/02 01:46:43;;;;;;;15.27;11.02;;;7.90;99.90;;;;;;5037938;28;20047;-63
2022/06/02 01:49:15;;;;;;;16.05;12.35;;;;;;;;;;5002188;28;20082;-63
2022/06/02 01:51:58;;;;;;;13.25;10.73;;;7.90;99.90;;;;;;5037187;28;20041;-63
2022/06/02 01:54:39;;;;;;;14.13;10.95;;;7.90;99.90;;;;;;5037040;28;20087;-63
2022/06/02 01:57:29;;;;;;;13.57;11.07;;;7.80;99.90;;;;;;5054612;28;20072;-63
2022/06/02 02:00:11;;;;;;;16.15;12.00;;;8.00;99.90;;;;;;5036517;28;20124;-63
2022/06/02 02:02:52;;;;;;;13.15;11.70;;;;;;;;;;5024942;28;20032;-63
2022/06/02 02:05:55;;;;;;;13.35;10.10;;;7.80;99.90;;;;;;5024915;28;20095;-63
2022/06/02 02:08:45;;;;;;;13.55;10.23;;;7.60;99.90;;;;;;5008469;28;20506;-63
2022/06/02 02:11:17;;;;;;;10.80;8.98;;;7.80;99.90;;;;;;5036085;28;20124;-63
2022/06/02 02:13:43;;;;;;;9.85;8.35;;;;;;;;;;5054133;28;20037;-63
2022/06/02 02:16:27;;;;;;;7.95;7.10;;;7.70;99.90;;;;;;5053888;28;20044;-63
2022/06/02 02:19:15;;;;;;;8.27;7.05;;;7.60;99.90;;;;;;5054116;28;20043;-63
2022/06/02 02:21:49;;;;;;;9.32;8.25;;;7.50;99.90;;;;;;5036280;28;20056;-63
2022/06/02 02:24:31;;;;;;;9.27;7.22;;;7.30;99.90;;;;;;5035946;28;20116;-63
2022/06/02 02:27:02;;;;;;;10.05;7.97;;;7.50;99.90;;;;;;5035833;28;20041;-63
2022/06/02 02:29:56;;;;;;;9.23;8.25;;;7.60;99.90;;;;;;5022810;28;20043;-63
2022/06/02 02:32:22;;;;;;;11.18;9.73;;;7.60;99.90;;;;;;5053715;28;20064;-63
2022/06/02 02:35:06;;;;;;;11.85;9.98;;;7.40;99.90;;;;;;5035980;28;20045;-63
2022/06/02 02:37:47;;;;;;;11.88;9.43;;;7.30;99.90;;;;;;5035915;28;20499;-63
2022/06/02 02:40:27;;;;;;;9.85;8.82;;;7.50;99.90;;;;;;5035663;28;20037;-63
2022/06/02 02:43:16;;;;;;;10.13;8.40;;;7.60;99.90;;;;;;5035896;28;20520;-63
2022/06/02 02:46:05;;;;;;;9.10;7.95;;;7.50;99.90;;;;;;5053498;28;20106;-63
2022/06/02 02:48:41;;;;;;;11.07;8.02;;;7.50;99.90;;;;;;5041887;28;20037;-63
2022/06/02 02:51:31;;;;;;;17.30;7.50;;;7.40;99.90;;;;;;5035482;28;20049;-63
2022/06/02 02:54:04;;;;;;;14.65;7.03;;;7.40;99.90;;;;;;5035677;28;20056;-63
2022/06/02 02:56:55;;;;;;;11.82;7.72;;;7.30;99.90;;;;;;5018677;28;20049;-63
2022/06/02 02:59:56;;;;;;;6.10;5.50;;;7.40;99.90;;;;;;5053006;28;20044;-63
2022/06/02 03:02:34;;;;;;;32.15;6.15;;;7.50;99.90;;;;;;5025373;28;20566;-63
2022/06/02 03:05:46;;;;;;;7.00;5.93;;;7.30;99.90;;;;;;5053308;28;20394;-63
2022/06/02 03:08:46;;;;;;;19.02;6.70;;;7.30;99.90;;;;;;4997518;28;20075;-63
2022/06/02 03:11:57;;;;;;;17.00;7.35;;;7.40;99.90;;;;;;5035279;28;20840;-63
2022/06/02 03:14:58;;;;;;;10.10;7.88;;;7.40;99.90;;;;;;5032155;28;20134;-63
2022/06/02 03:17:42;;;;;;;10.32;7.65;;;7.30;99.90;;;;;;5023351;28;20119;-63
2022/06/02 03:20:32;;;;;;;11.48;9.07;;;7.30;99.90;;;;;;5018295;28;20037;-63
2022/06/02 03:23:19;;;;;;;12.85;9.88;;;7.50;99.90;;;;;;5052861;28;20029;-62
2022/06/02 03:25:50;;;;;;;12.65;9.65;;;7.30;99.90;;;;;;5053019;28;20064;-63
2022/06/02 03:28:23;;;;;;;12.48;10.00;;;7.40;99.90;;;;;;5052313;28;20053;-62
2022/06/02 03:31:28;;;;;;;9.25;7.22;;;7.10;99.90;;;;;;5018327;28;20056;-63
2022/06/02 03:34:23;;;;;;;5.85;5.25;;;7.20;99.90;;;;;;5006340;28;20045;-63
2022/06/02 03:36:49;;;;;;;6.47;5.47;;;;;;;;;;5014167;28;20052;-63
2022/06/02 03:39:32;;;;;;;7.20;6.47;;;7.20;99.90;;;;;;5034673;28;20120;-62
2022/06/02 03:42:25;;;;;;;9.68;7.18;;;7.30;99.90;;;;;;5018383;28;20040;-63
2022/06/02 03:45:32;;;;;;;11.77;8.23;;;7.10;99.90;;;;;;5034890;28;20438;-62
2022/06/02 03:48:16;;;;;;;7.82;6.55;;;7.30;99.90;;;;;;5021391;28;20040;-62
2022/06/02 03:50:42;;;;;;;7.22;5.03;;;7.30;99.90;;;;;;5052686;28;20041;-63
2022/06/02 03:53:15;;;;;;;6.22;5.43;;;7.40;99.90;;;;;;5034527;28;20120;-62
2022/06/02 03:56:00;;;;;;;5.82;4.90;;;7.40;99.90;;;;;;5034144;28;20056;-62
2022/06/02 03:58:47;;;;;;;6.20;4.75;;;7.10;99.90;;;;;;5034804;28;20049;-63
2022/06/02 04:01:19;;;;;;;6.85;5.80;;;7.10;99.90;;;;;;5052358;28;20040;-62
2022/06/02 04:03:45;;;;;;;9.65;7.20;;;;;;;;;;5052325;28;20384;-62
2022/06/02 04:06:37;;;;;;;6.68;5.93;;;7.20;99.90;;;;;;5017499;28;20045;-63
2022/06/02 04:09:08;;;;;;;6.82;5.47;;;7.10;99.90;;;;;;5012643;28;20087;-62
2022/06/02 04:14:54;;;;;;;8.52;7.20;;;7.20;99.90;;;;;;5019460;28;20045;-63
2022/06/02 04:17:37;;;;;;;8.20;7.40;;;7.20;99.90;;;;;;5021977;28;20045;-63
2022/06/02 04:23:20;;;;;;;9.45;7.40;;;7.40;99.90;;;;;;5029014;28;20057;-63
2022/06/02 04:26:10;;;;;;;12.02;8.77;;;;;;;;;;5033469;28;20049;-63
2022/06/02 04:28:57;;;;;;;11.30;8.85;;;7.60;99.90;;;;;;5027884;28;20119;-62
2022/06/02 04:31:35;;;;;;;12.00;9.65;;;;;;;;;;5043291;28;20033;-62
2022/06/02 04:34:05;;;;;;;11.95;10.30;;;;;;;;;;5006695;28;20049;-62
2022/06/02 04:36:40;;;;;;;13.05;10.18;;;;;;;;;;5041051;28;20847;-62
2022/06/02 04:39:22;;;;;;;16.92;11.90;;;;;;;;;;5043862;28;20047;-62
2022/06/02 04:42:04;;;;;;;20.48;15.60;;;;;;;;;;5037029;28;20522;-62
2022/06/02 04:44:43;;;;;;;24.48;17.52;;;;;;;;;;5046767;28;20041;-62
2022/06/02 04:47:35;;;;;;;24.60;16.80;;;8.60;99.90;;;;;;5028856;28;20049;-61
2022/06/02 04:50:17;;;;;;;20.05;16.35;;;;;;;;;;4993828;28;20049;-62
2022/06/02 04:52:54;;;;;;;22.25;16.92;;;8.60;99.90;;;;;;5027528;28;20056;-62
2022/06/02 04:55:32;;;;;;;21.33;15.90;;;;;;;;;;5027228;28;20166;-63
2022/06/02 04:58:17;;;;;;;16.92;13.57;;;9.70;99.90;;;;;;5045086;28;20064;-62
2022/06/02 05:00:43;;;;;;;15.15;11.35;;;;;;;;;;5044426;28;20052;-62
2022/06/02 05:03:09;;;;;;;14.30;11.68;;;;;;;;;;5027248;28;20064;-63
2022/06/02 05:05:40;;;;;;;12.63;10.88;;;11.60;99.90;;;;;;5044682;28;20045;-63
2022/06/02 05:08:42;;;;;;;12.52;10.52;;;12.00;99.90;;;;;;5017934;28;20702;-63
2022/06/02 05:11:20;;;;;;;14.15;9.57;;;12.40;99.90;;;;;;5022109;28;20071;-63
2022/06/02 05:14:14;;;;;;;11.43;9.52;;;12.80;99.90;;;;;;5031026;28;20152;-63
2022/06/02 05:16:50;;;;;;;11.10;7.68;;;13.60;99.90;;;;;;5024425;28;20044;-62
2022/06/02 05:19:31;;;;;;;8.88;7.97;;;13.90;99.90;;;;;;5051294;28;20071;-64
2022/06/02 05:22:36;;;;;;;10.10;6.95;;;13.80;99.90;;;;;;5022877;28;20048;-64
2022/06/02 05:25:23;;;;;;;11.18;6.80;;;14.50;99.90;;;;;;5026920;28;20052;-64
2022/06/02 05:28:03;;;;;;;7.75;6.38;;;14.80;99.90;;;;;;5046954;28;20041;-64
2022/06/02 05:30:46;;;;;;;9.00;6.32;;;14.80;99.90;;;;;;5050852;28;20490;-64
2022/06/02 05:33:43;;;;;;;8.07;6.05;;;15.00;99.90;;;;;;5051347;28;20036;-64
2022/06/02 05:36:33;;;;;;;7.15;5.68;;;15.30;99.90;;;;;;5036399;28;20188;-63
2022/06/02 05:39:07;;;;;;;5.97;4.90;;;15.90;99.90;;;;;;5041373;28;20430;-64
2022/06/02 05:42:09;;;;;;;8.70;5.93;;;16.20;99.90;;;;;;5033182;28;20041;-64
2022/06/02 05:45:01;;;;;;;5.95;4.78;;;16.40;99.90;;;;;;5019102;28;20646;-64
2022/06/02 05:47:51;;;;;;;5.63;4.47;;;16.50;99.90;;;;;;5042341;28;20442;-64
2022/06/02 05:50:32;;;;;;;4.88;4.38;;;16.20;99.90;;;;;;5052133;28;20044;-63
2022/06/02 05:53:03;;;;;;;5.30;3.92;;;16.20;99.90;;;;;;5049898;28;20489;-63
2022/06/02 05:55:39;;;;;;;5.07;3.88;;;17.40;99.90;;;;;;5027376;28;20059;-64
2022/06/02 05:58:31;;;;;;;5.57;4.07;;;16.00;99.90;;;;;;5040105;28;20120;-64
2022/06/02 06:01:16;;;;;;;3.97;3.33;;;16.00;99.90;;;;;;5047142;28;20446;-64
2022/06/02 06:03:45;;;;;;;;;;;15.90;99.90;;;;;;5038932;28;20036;-63
2022/06/02 06:06:32;;;;;;;4.95;3.60;;;15.60;99.90;;;;;;5039089;28;20303;-64
2022/06/02 06:09:03;;;;;;;5.65;4.18;;;15.70;99.90;;;;;;5037443;28;20410;-63
2022/06/02 06:12:11;;;;;;;4.38;3.60;;;15.70;99.90;;;;;;5016926;28;20076;-64
2022/06/02 06:15:09;;;;;;;7.20;3.60;;;15.60;99.90;;;;;;5044803;28;20168;-64
2022/06/02 06:18:06;;;;;;;5.68;3.78;;;15.50;99.90;;;;;;5035744;28;20076;-64
2022/06/02 06:20:50;;;;;;;6.10;4.07;;;15.40;99.90;;;;;;5053956;28;20529;-64
2022/06/02 06:23:41;;;;;;;4.22;3.42;;;16.00;99.90;;;;;;5019429;28;20045;-64
2022/06/02 06:26:25;;;;;;;5.63;3.50;;;17.80;99.90;;;;;;5042554;28;20049;-64
2022/06/02 06:29:21;;;;;;;5.47;3.15;;;16.40;99.90;;;;;;5035627;28;20041;-64
2022/06/02 06:31:51;;;;;;;4.72;2.85;;;16.20;99.90;;;;;;5035939;28;20053;-63
2022/06/02 06:34:54;;;;;;;3.65;2.70;;;17.70;99.90;;;;;;5034557;28;20045;-64
2022/06/02 06:37:32;;;;;;;4.07;2.75;;;16.30;99.90;;;;;;5012953;28;20106;-63
2022/06/02 06:40:17;;;;;;;6.05;3.00;;;16.20;99.90;;;;;;5035493;28;20040;-64
2022/06/02 06:43:10;;;;;;;3.92;3.03;;;16.30;99.90;;;;;;5052830;28;20051;-64
2022/06/02 06:45:48;;;;;;;3.78;2.63;;;15.80;99.90;;;;;;5035354;28;20041;-64
2022/06/02 06:48:37;;;;;;;9.35;2.78;;;15.90;99.90;;;;;;5042275;28;20380;-63
2022/06/02 06:51:40;;;;;;;5.88;2.90;;;15.70;99.90;;;;;;5035124;28;20044;-64
2022/06/02 06:54:38;;;;;;;4.72;3.50;;;15.30;99.90;;;;;;5053131;28;20032;-64
2022/06/02 06:57:11;;;;;;;4.72;3.17;;;15.30;99.90;;;;;;5044701;28;20102;-63
2022/06/02 07:00:02;;;;;;;3.58;2.30;;;15.20;99.90;;;;;;5052960;28;20033;-64
2022/06/02 07:02:46;;;;;;;3.75;1.92;;;14.80;99.90;;;;;;5052849;28;20120;-64
2022/06/02 07:05:29;;;;;;;4.50;2.63;;;15.00;99.90;;;;;;5023043;28;20036;-63
2022/06/02 07:08:14;;;;;;;4.78;2.83;;;14.90;99.90;;;;;;5034920;28;20045;-64
2022/06/02 07:11:07;;;;;;;2.92;2.35;;;15.00;99.90;;;;;;5035192;28;20041;-64
2022/06/02 07:13:44;;;;;;;4.55;2.00;;;14.90;99.90;;;;;;5034645;28;20041;-62
2022/06/02 07:16:12;;;;;;;2.30;1.33;;;14.80;99.90;;;;;;5052527;28;20040;-64
2022/06/02 07:19:16;;;;;;;1.52;1.00;;;15.20;99.90;;;;;;5032280;28;20097;-62
2022/06/02 07:22:03;;;;;;;3.28;1.60;;;15.10;99.90;;;;;;5031616;28;20052;-63
2022/06/02 07:24:57;;;;;;;2.03;1.60;;;15.20;99.90;;;;;;5052921;28;20122;-64
2022/06/02 07:27:43;;;;;;;2.90;1.63;;;15.10;99.90;;;;;;5052362;28;20494;-64
2022/06/02 07:30:48;;;;;;;2.45;1.50;;;15.10;99.90;;;;;;5052645;28;20059;-62
2022/06/02 07:33:26;;;;;;;1.73;1.20;;;14.90;99.90;;;;;;5034596;28;20043;-64
2022/06/02 07:36:19;;;;;;;4.05;1.17;;;15.10;99.90;;;;;;5034549;28;20773;-64
2022/06/02 07:38:45;;;;;;;3.10;0.93;;;15.00;99.90;;;;;;5052400;28;20047;-63
2022/06/02 07:41:30;;;;;;;2.97;1.27;;;15.40;99.90;;;;;;5034499;28;20045;-64
2022/06/02 07:44:16;;;;;;;4.10;1.10;;;15.20;99.90;;;;;;5034402;28;20044;-63
2022/06/02 07:47:16;;;;;;;2.20;1.10;;;15.20;99.90;;;;;;5052282;28;20088;-64
2022/06/02 07:49:42;;;;;;;1.42;1.02;;;;;;;;;;5021681;28;20041;-64
2022/06/02 07:52:13;;;;;;;2.60;1.58;;;15.00;99.90;;;;;;5052120;28;20035;-64
2022/06/02 07:55:07;;;;;;;2.05;1.17;;;15.40;99.90;;;;;;5052055;28;20049;-64
2022/06/02 07:57:59;;;;;;;2.35;1.33;;;15.40;99.90;;;;;;5051092;28;20053;-63
2022/06/02 08:00:35;;;;;;;2.95;1.55;;;15.60;99.90;;;;;;5034288;28;20037;-64
2022/06/02 08:03:25;;;;;;;3.50;1.20;;;15.50;99.90;;;;;;5052065;28;20064;-64
2022/06/02 08:06:04;;;;;;;1.98;1.13;;;15.10;99.90;;;;;;5051873;28;20399;-64
2022/06/02 08:08:49;;;;;;;3.45;1.63;;;15.00;99.90;;;;;;5052318;28;20044;-64
2022/06/02 08:11:39;;;;;;;2.05;1.20;;;16.50;99.90;;;;;;5052061;28;20037;-64
2022/06/02 08:14:24;;;;;;;2.65;0.95;;;15.10;99.90;;;;;;5051989;28;20105;-63
2022/06/02 08:17:28;;;;;;;3.75;1.40;;;15.40;99.90;;;;;;5056041;28;20057;-64
2022/06/02 08:20:01;;;;;;;2.00;1.02;;;15.20;99.90;;;;;;5006068;28;20081;-64
2022/06/02 08:22:43;;;;;;;5.07;1.17;;;15.30;99.90;;;;;;5024629;28;20120;-63
2022/06/02 08:25:13;;;;;;;1.92;1.20;;;15.40;99.90;;;;;;5055809;28;20076;-63
2022/06/02 08:27:54;;;;;;;3.67;1.38;;;15.30;99.90;;;;;;5032567;28;20045;-64
2022/06/02 08:30:29;;;;;;;1.38;1.00;;;15.30;99.90;;;;;;5037649;28;20036;-64
2022/06/02 08:33:20;;;;;;;2.90;1.30;;;15.40;99.90;;;;;;5038063;28;20056;-64
2022/06/02 08:36:04;;;;;;;2.40;1.60;;;15.50;99.90;;;;;;5036279;28;20040;-63
2022/06/02 08:38:29;;;;;;;2.67;1.60;;;15.40;99.90;;;;;;5037797;28;20091;-63
2022/06/02 08:41:28;;;;;;;4.95;1.30;;;15.50;99.90;;;;;;5037244;28;20467;-63
2022/06/02 08:44:15;;;;;;;2.63;1.20;;;15.20;99.90;;;;;;5037545;28;20045;-63
2022/06/02 08:46:59;;;;;;;2.20;1.30;;;15.20;99.90;;;;;;5048602;28;20090;-63
2022/06/02 08:49:42;;;;;;;5.07;1.52;;;15.30;99.90;;;;;;5055147;28;20040;-63
2022/06/02 08:52:11;;;;;;;3.58;1.35;;;15.40;99.90;;;;;;5055362;28;20045;-63
2022/06/02 08:54:39;;;;;;;1.83;1.60;;;16.10;99.90;;;;;;5037155;28;20452;-63
2022/06/02 08:57:36;;;;;;;4.40;1.58;;;15.50;99.90;;;;;;5055058;28;20049;-63
2022/06/02 09:00:07;;;;;;;2.45;1.50;;;15.50;99.90;;;;;;5047324;28;20092;-64
2022/06/02 09:03:01;;;;;;;2.63;1.42;;;15.50;99.90;;;;;;5041460;28;20049;-64
2022/06/02 09:05:43;;;;;;;1.98;1.35;;;15.60;99.90;;;;;;5026982;28;20047;-63
2022/06/02 09:08:32;;;;;;;1.95;1.52;;;15.60;99.90;;;;;;5030549;28;20045;-63
2022/06/02 09:11:05;;;;;;;1.63;1.08;;;15.60;99.90;;;;;;5049381;28;20406;-63
2022/06/02 09:14:08;;;;;;;2.35;1.63;;;15.60;99.90;;;;;;5054956;28;20505;-63
2022/06/02 09:16:55;;;;;;;3.50;1.58;;;15.80;99.90;;;;;;5050983;28;20033;-63
2022/06/02 09:19:33;;;;;;;1.33;0.95;;;15.70;99.90;;;;;;5020913;28;20037;-63
2022/06/02 09:22:13;;;;;;;2.35;1.70;;;15.90;99.90;;;;;;5038266;28;20041;-63
2022/06/02 09:24:43;;;;;;;2.90;1.63;;;15.90;99.90;;;;;;5045784;28;20037;-63
2022/06/02 09:27:11;;;;;;;5.55;1.80;;;15.80;99.90;;;;;;5027729;28;20037;-63
2022/06/02 09:29:59;;;;;;;1.80;1.55;;;16.10;99.90;;;;;;5029285;28;20037;-63
2022/06/02 09:32:34;;;;;;;4.70;1.40;;;17.70;99.90;;;;;;5018608;28;20490;-64
2022/06/02 09:35:29;;;;;;;3.97;1.45;;;17.10;99.90;;;;;;5029886;28;20072;-63
2022/06/02 09:38:11;;;;;;;2.35;1.30;;;16.20;99.90;;;;;;5037440;28;20562;-63
2022/06/02 09:40:49;;;;;;;4.90;1.45;;;17.00;99.90;;;;;;5036400;28;20116;-63
2022/06/02 09:43:24;;;;;;;3.20;1.60;;;16.40;99.90;;;;;;5054475;28;20033;-63
2022/06/02 09:45:50;;;;;;;;;;;16.40;99.90;;;;;;5027418;28;20041;-63
2022/06/02 09:48:25;;;;;;;2.55;1.90;;;16.70;99.90;;;;;;5029014;28;19921;-64
2022/06/02 09:51:30;;;;;;;3.75;1.27;;;16.50;99.90;;;;;;5032615;28;20045;-64
2022/06/02 09:54:33;;;;;;;2.55;1.10;;;16.50;99.90;;;;;;5029264;28;20329;-63
2022/06/02 09:57:01;;;;;;;1.80;1.55;;;16.90;99.90;;;;;;5032284;28;20123;-65
2022/06/02 09:59:48;;;;;;;2.33;1.20;;;16.80;99.90;;;;;;5021922;28;20064;-65
2022/06/02 10:02:32;;;;;;;2.80;1.20;;;16.90;99.90;;;;;;5029893;28;20045;-65
2022/06/02 10:05:18;;;;;;;2.35;1.23;;;17.10;99.90;;;;;;5049544;28;20041;-65
2022/06/02 10:07:55;;;;;;;;;;;18.50;99.90;;;;;;5049042;28;20057;-65
2022/06/02 10:10:39;;;;;;;2.70;1.10;;;17.00;99.90;;;;;;5048842;28;19920;-65
2022/06/02 10:13:39;;;;;;;1.92;1.13;;;17.10;99.90;;;;;;5049175;28;20844;-65
2022/06/02 10:16:32;;;;;;;4.20;1.27;;;16.80;99.90;;;;;;5044155;28;20041;-64
2022/06/02 10:19:29;;;;;;;2.10;1.13;;;17.00;99.90;;;;;;5031159;28;20465;-65
2022/06/02 10:22:07;;;;;;;6.10;1.30;;;16.90;99.90;;;;;;5030619;28;20045;-65
2022/06/02 10:24:51;;;;;;;1.65;0.90;;;17.10;99.90;;;;;;5049001;28;20546;-64
2022/06/02 10:27:16;;;;;;;3.75;1.60;;;17.40;99.90;;;;;;5029893;28;20036;-64
2022/06/02 10:30:07;;;;;;;2.20;0.98;;;17.20;99.90;;;;;;5048861;28;20045;-65
2022/06/02 10:33:10;;;;;;;3.67;1.45;;;17.50;99.90;;;;;;5031059;28;20044;-64
2022/06/02 10:35:52;;;;;;;2.67;0.90;;;17.70;99.90;;;;;;5030758;28;20036;-66
2022/06/02 10:38:45;;;;;;;3.15;1.70;;;18.50;99.90;;;;;;5030398;28;20044;-65
2022/06/02 10:41:39;;;;;;;1.42;1.05;;;17.60;99.90;;;;;;5048937;28;20063;-65
2022/06/02 10:44:12;;;;;;;2.95;1.40;;;17.70;99.90;;;;;;5046772;28;20045;-65
2022/06/02 10:47:06;;;;;;;2.28;1.10;;;17.80;99.90;;;;;;5045176;28;20095;-65
2022/06/02 10:50:09;;;;;;;3.10;0.95;;;17.70;99.90;;;;;;5048603;28;20450;-65
2022/06/02 10:52:54;;;;;;;2.05;0.88;;;17.90;99.90;;;;;;5047290;28;20049;-65
2022/06/02 10:55:35;;;;;;;2.47;1.60;;;17.60;99.90;;;;;;5043747;28;20491;-65
2022/06/02 10:58:22;;;;;;;2.85;0.85;;;17.60;99.90;;;;;;5029433;28;20056;-65
2022/06/02 11:01:31;;;;;;;1.95;0.88;;;17.50;99.90;;;;;;5031115;28;20048;-65
2022/06/02 11:04:16;;;;;;;3.70;1.38;;;17.40;99.90;;;;;;5041098;28;20052;-65
2022/06/02 11:07:16;;;;;;;3.15;1.13;;;17.30;99.90;;;;;;5028326;28;20098;-65
2022/06/02 11:10:03;;;;;;;3.90;1.55;;;17.60;99.90;;;;;;5030964;28;20136;-65
2022/06/02 11:13:07;;;;;;;3.63;1.45;;;17.40;99.90;;;;;;5031441;28;20546;-65
2022/06/02 11:15:32;;;;;;;2.45;1.17;;;17.20;99.90;;;;;;5020966;28;20040;-64
2022/06/02 11:18:33;;;;;;;2.25;1.00;;;19.00;99.90;;;;;;5031125;28;20045;-65
2022/06/02 11:21:08;;;;;;;3.42;1.15;;;17.40;99.90;;;;;;5031479;28;20060;-65
2022/06/02 11:23:58;;;;;;;2.58;1.38;;;17.20;99.90;;;;;;5030918;28;20057;-65
2022/06/02 11:27:14;;;;;;;4.30;1.33;;;17.20;99.90;;;;;;5031439;28;20550;-65
2022/06/02 11:29:49;;;;;;;;;;;17.40;99.90;;;;;;5025648;28;20060;-64
2022/06/02 11:32:44;;;;;;;2.63;1.25;;;17.60;99.90;;;;;;5050140;28;20376;-64
2022/06/02 11:35:38;;;;;;;2.23;1.60;;;17.70;99.90;;;;;;5033866;28;20482;-65
2022/06/02 11:38:31;;;;;;;2.22;1.10;;;17.60;99.90;;;;;;5051044;28;20076;-64
2022/06/02 11:41:08;;;;;;;2.67;1.13;;;17.60;99.90;;;;;;5051962;28;20094;-64
2022/06/02 11:43:50;;;;;;;2.13;1.33;;;17.80;99.90;;;;;;5051682;28;20132;-64
2022/06/02 11:46:24;;;;;;;2.92;1.30;;;18.10;99.90;;;;;;5031365;28;20090;-63
2022/06/02 11:48:55;;;;;;;1.33;1.20;;;17.80;99.90;;;;;;5048980;28;20040;-64
2022/06/02 11:51:54;;;;;;;2.40;1.38;;;17.80;99.90;;;;;;5032214;28;20329;-64
2022/06/02 11:55:00;;;;;;;4.28;1.45;;;18.00;99.90;;;;;;4999945;28;20056;-65
2022/06/02 11:58:03;;;;;;;2.40;1.40;;;17.80;99.90;;;;;;4985194;28;20136;-65
2022/06/02 12:01:12;;;;;;;1.83;0.82;;;18.30;99.90;;;;;;5033592;28;20049;-64
2022/06/02 12:04:06;;;;;;;5.07;1.30;;;18.10;99.90;;;;;;5032553;28;20416;-65
2022/06/02 12:07:02;;;;;;;2.50;1.23;;;18.20;99.90;;;;;;5032967;28;20510;-65
2022/06/02 12:09:59;;;;;;;1.67;1.00;;;18.50;99.90;;;;;;5050944;28;20028;-65
2022/06/02 12:12:43;;;;;;;5.55;1.58;;;18.70;99.90;;;;;;5044891;28;20112;-64
2022/06/02 12:15:12;;;;;;;2.25;1.58;;;18.70;99.90;;;;;;5052148;28;20076;-65
2022/06/02 12:17:59;;;;;;;2.80;1.05;;;18.60;99.90;;;;;;5051083;28;20044;-64
2022/06/02 12:20:43;;;;;;;3.47;1.73;;;18.80;99.90;;;;;;5051694;28;20041;-63
2022/06/02 12:23:23;;;;;;;2.50;1.10;;;18.90;99.90;;;;;;5031924;28;20045;-65
2022/06/02 12:26:00;;;;;;;3.85;1.88;;;19.40;99.90;;;;;;5020720;28;20521;-64
2022/06/02 12:28:48;;;;;;;2.60;0.93;;;18.90;99.90;;;;;;5051528;28;20499;-65
2022/06/02 12:31:38;;;;;;;1.92;1.30;;;18.80;99.90;;;;;;5017556;28;20106;-65
2022/06/02 12:34:47;;;;;;;1.67;1.02;;;18.80;99.90;;;;;;5033833;28;20033;-66
2022/06/02 12:37:47;;;;;;;2.42;1.13;;;18.70;99.90;;;;;;5032692;28;20037;-65
2022/06/02 12:40:19;;;;;;;2.47;1.13;;;18.80;99.90;;;;;;5051467;28;20119;-64
2022/06/02 12:42:59;;;;;;;2.60;0.80;;;18.90;99.90;;;;;;5051322;28;20564;-65
2022/06/02 12:45:45;;;;;;;2.33;1.30;;;18.60;99.90;;;;;;5031193;28;20076;-65
2022/06/02 12:48:33;;;;;;;2.90;1.67;;;18.60;99.90;;;;;;5022368;28;20048;-65
2022/06/02 12:51:28;;;;;;;2.60;1.08;;;18.70;99.90;;;;;;5033415;28;20064;-66
2022/06/02 12:54:31;;;;;;;2.20;1.10;;;18.60;99.90;;;;;;5003902;28;20087;-65
2022/06/02 12:56:59;;;;;;;2.55;0.75;;;18.80;99.90;;;;;;5041434;28;20061;-65
2022/06/02 12:59:31;;;;;;;2.20;0.93;;;18.70;99.90;;;;;;5023796;28;20057;-65
2022/06/02 13:02:07;;;;;;;3.00;1.10;;;18.80;99.90;;;;;;5016773;28;20132;-65
2022/06/02 13:05:12;;;;;;;1.52;0.80;;;18.60;99.90;;;;;;5053169;28;20040;-65
2022/06/02 13:08:15;;;;;;;1.60;0.90;;;18.90;99.90;;;;;;5017268;28;20046;-65
2022/06/02 13:11:01;;;;;;;2.65;0.85;;;18.90;99.90;;;;;;5049524;28;20048;-65
2022/06/02 13:13:40;;;;;;;2.67;1.02;;;19.00;99.90;;;;;;5051919;28;20052;-64
2022/06/02 13:16:27;;;;;;;3.72;1.17;;;19.50;99.90;;;;;;5031892;28;20063;-65
2022/06/02 13:19:20;;;;;;;1.35;0.88;;;19.20;99.90;;;;;;5016727;28;20073;-65
2022/06/02 13:22:10;;;;;;;1.90;0.90;;;19.30;99.90;;;;;;5036105;28;20048;-64
2022/06/02 13:24:56;;;;;;;3.58;0.98;;;19.20;99.90;;;;;;5046096;28;20123;-64
2022/06/02 13:27:57;;;;;;;3.17;0.70;;;19.20;99.90;;;;;;5042053;28;20507;-64
2022/06/02 13:30:32;;;;;;;3.22;1.13;;;19.20;99.90;;;;;;4991766;28;20091;-64
2022/06/02 13:33:34;;;;;;;1.80;0.77;;;19.20;99.90;;;;;;5044611;28;20045;-66
2022/06/02 13:36:33;;;;;;;2.95;0.60;;;19.40;99.90;;;;;;5045868;28;20041;-65
2022/06/02 13:39:17;;;;;;;1.85;0.88;;;19.30;99.90;;;;;;5028854;28;20052;-65
2022/06/02 13:41:53;;;;;;;2.25;0.70;;;19.50;99.90;;;;;;5028904;28;20045;-65
2022/06/02 13:44:56;;;;;;;1.52;0.85;;;19.10;99.90;;;;;;5028686;28;20061;-65
2022/06/02 13:47:45;;;;;;;2.15;0.70;;;19.00;99.90;;;;;;5045933;28;20123;-64
2022/06/02 13:50:38;;;;;;;2.60;1.00;;;19.20;99.90;;;;;;5038108;28;20052;-65
2022/06/02 14:00:20;;;;;;;2.45;0.80;;;19.00;99.90;;;;;;5030590;28;20136;-65
2022/06/02 14:03:01;;;;;;;4.20;1.15;;;19.10;99.90;;;;;;5029266;28;20076;-65
2022/06/02 14:05:45;;;;;;;3.42;1.27;;;19.20;99.90;;;;;;5042741;28;20041;-65
2022/06/02 14:08:40;;;;;;;2.60;0.93;;;19.50;99.90;;;;;;5049896;28;20037;-65
2022/06/02 14:11:24;;;;;;;1.92;0.90;;;20.90;99.90;;;;;;5049628;28;20434;-65
2022/06/02 14:14:03;;;;;;;1.52;0.70;;;19.40;99.90;;;;;;5030423;28;20227;-65
2022/06/02 14:16:50;;;;;;;3.40;0.80;;;19.30;99.90;;;;;;5031997;28;20037;-65
2022/06/02 14:19:34;;;;;;;2.03;0.70;;;19.20;99.90;;;;;;5038781;28;20475;-65
2022/06/02 14:22:41;;;;;;;3.53;0.80;;;19.30;99.90;;;;;;5049662;28;20041;-65
2022/06/02 14:25:15;;;;;;;4.28;0.80;;;18.90;99.90;;;;;;4945157;28;20059;-65
2022/06/02 14:28:22;;;;;;;1.10;0.80;;;19.40;99.90;;;;;;5031109;28;20136;-65
2022/06/02 14:31:10;;;;;;;3.78;0.77;;;18.90;99.90;;;;;;4979528;28;20049;-65
2022/06/02 14:33:39;;;;;;;2.03;1.00;;;18.80;99.90;;;;;;5049251;28;20546;-65
2022/06/02 14:36:29;;;;;;;3.50;1.15;;;20.30;99.90;;;;;;5049703;28;20037;-65
2022/06/02 14:39:20;;;;;;;4.65;1.02;;;18.70;99.90;;;;;;5019885;28;20049;-64
2022/06/02 14:41:56;;;;;;;1.58;0.90;;;18.80;99.90;;;;;;5031109;28;20106;-65
2022/06/02 14:44:47;;;;;;;2.63;1.05;;;18.50;99.90;;;;;;5031696;28;20499;-65
2022/06/02 14:47:19;;;;;;;2.13;0.70;;;18.40;99.90;;;;;;5049226;28;20041;-65